Winston, New Mexico
Current Conditions -  °F | °C
As of 5:53 PM on Tuesday 27 Jan 2015 (Local Time) from KTCS Reporting Station
Clear Clear  
Wind Chill: 61°   Ceiling: Unl
Heat Index: 61°   Visibility: 10mi
Dew Point: 37°   Wind: 5mph
Humidity: 41%   Direction: 200°SSW
Pressure: 30.21"   Gusts: NA
Location:  33.33°N, 107.65°W
Report Text: KTCS 280053Z AUTO 20004KT 10SM CLR 16/03 A3021 RMK AO2 SLP190 T01610028 TSNO
Loading
Personal Weather Stations






























Interactive Weather Map New forecast layout! Learn more

10-Day Weather Forecast

Advertisements
Track Severe Weather on mobile